createdAt,value
2022-08-20T00:01:02.395Z,23.30
2022-08-20T00:03:29.135Z,23.30
2022-08-20T00:06:00.805Z,23.30
2022-08-20T00:08:25.075Z,23.20
2022-08-20T00:10:55.529Z,23.20
2022-08-20T00:13:25.797Z,23.30
2022-08-20T00:15:50.061Z,23.30
2022-08-20T00:18:14.746Z,23.30
2022-08-20T00:20:43.192Z,23.30
2022-08-20T00:23:10.508Z,23.20
2022-08-20T00:25:34.783Z,23.30
2022-08-20T00:27:59.843Z,23.30
2022-08-20T00:30:26.771Z,23.20
2022-08-20T00:32:54.372Z,23.30
2022-08-20T00:35:21.084Z,23.20
2022-08-20T00:37:45.227Z,23.10
2022-08-20T00:40:22.391Z,23.20
2022-08-20T00:42:51.049Z,23.10
2022-08-20T00:45:16.102Z,22.90
2022-08-20T00:47:51.196Z,23.00
2022-08-20T00:50:19.273Z,22.90
2022-08-20T00:52:49.816Z,23.00
2022-08-20T00:55:15.158Z,23.10
2022-08-20T00:57:44.577Z,23.10
2022-08-20T01:00:30.419Z,23.10
2022-08-20T01:02:56.331Z,23.10
2022-08-20T01:05:29.489Z,23.20
2022-08-20T01:07:55.786Z,23.10
2022-08-20T01:10:26.153Z,23.10
2022-08-20T01:12:59.117Z,23.10
2022-08-20T01:15:30.829Z,23.10
2022-08-20T01:17:59.835Z,23.10
2022-08-20T01:20:28.613Z,23.00
2022-08-20T01:23:19.836Z,22.90
2022-08-20T01:25:50.738Z,23.00
2022-08-20T01:28:16.287Z,22.90
2022-08-20T01:30:40.756Z,22.90
2022-08-20T01:33:05.026Z,22.90
2022-08-20T01:35:30.432Z,22.90
2022-08-20T01:37:54.526Z,22.90
2022-08-20T01:40:37.657Z,22.90
2022-08-20T01:43:09.737Z,22.90
2022-08-20T01:45:34.135Z,22.80
2022-08-20T01:47:58.328Z,22.80
2022-08-20T01:50:27.759Z,22.90
2022-08-20T01:52:59.263Z,22.70
2022-08-20T01:55:23.303Z,22.80
2022-08-20T01:57:48.528Z,22.70
2022-08-20T02:00:19.782Z,22.70
2022-08-20T02:02:49.607Z,22.90
2022-08-20T02:05:14.051Z,22.80
2022-08-20T02:07:37.861Z,22.70
2022-08-20T02:10:02.619Z,22.70
2022-08-20T02:12:26.922Z,22.70
2022-08-20T02:14:54.395Z,22.70
2022-08-20T02:17:21.158Z,22.70
2022-08-20T02:19:50.847Z,22.80
2022-08-20T02:22:22.129Z,22.90
2022-08-20T02:24:46.077Z,22.90
2022-08-20T02:27:09.976Z,22.90
2022-08-20T02:29:37.235Z,22.70
2022-08-20T02:32:32.063Z,22.80
2022-08-20T02:34:46.576Z,22.80
2022-08-20T02:37:11.717Z,22.70
2022-08-20T02:39:36.673Z,22.70
2022-08-20T02:42:01.959Z,22.70
2022-08-20T02:44:25.892Z,22.80
2022-08-20T02:46:50.656Z,22.80
2022-08-20T02:49:14.462Z,22.80
2022-08-20T02:51:39.390Z,22.70
2022-08-20T02:54:03.123Z,22.70
2022-08-20T02:56:27.434Z,22.70
2022-08-20T02:58:51.363Z,22.60
2022-08-20T03:01:18.919Z,22.60
2022-08-20T03:03:43.743Z,22.60
2022-08-20T03:06:10.181Z,22.70
2022-08-20T03:08:39.253Z,22.50
2022-08-20T03:11:03.133Z,22.60
2022-08-20T03:13:27.270Z,22.70
2022-08-20T03:15:58.414Z,22.60
2022-08-20T03:18:24.302Z,22.60
2022-08-20T03:20:52.063Z,22.60
2022-08-20T03:23:17.554Z,22.50
2022-08-20T03:25:43.412Z,22.60
2022-08-20T03:28:07.545Z,22.80
2022-08-20T03:30:32.528Z,22.70
2022-08-20T03:32:56.757Z,22.70
2022-08-20T03:35:24.818Z,22.70
2022-08-20T03:37:49.280Z,22.80
2022-08-20T03:40:20.429Z,22.80
2022-08-20T03:42:45.695Z,22.70
2022-08-20T03:45:13.035Z,22.60
2022-08-20T03:47:39.207Z,22.70
2022-08-20T03:50:06.984Z,22.70
2022-08-20T03:52:30.823Z,22.60
2022-08-20T03:54:55.131Z,22.60
2022-08-20T03:57:18.965Z,22.70
2022-08-20T03:59:46.102Z,22.70
2022-08-20T04:02:14.235Z,22.70
2022-08-20T04:04:38.378Z,22.60
2022-08-20T04:07:12.858Z,22.70
2022-08-20T04:09:36.753Z,22.70
2022-08-20T04:12:02.055Z,22.70
2022-08-20T04:14:26.021Z,22.60
2022-08-20T04:16:54.772Z,22.60
2022-08-20T04:19:18.783Z,22.70
2022-08-20T04:21:42.815Z,22.60
2022-08-20T04:24:07.869Z,22.60
2022-08-20T04:26:48.358Z,22.60
2022-08-20T04:29:12.721Z,22.60
2022-08-20T04:31:36.851Z,22.50
2022-08-20T04:34:05.412Z,22.60
2022-08-20T04:36:32.116Z,22.60
2022-08-20T04:38:56.554Z,22.60
2022-08-20T04:41:23.727Z,22.60
2022-08-20T04:43:48.519Z,22.60
2022-08-20T04:46:14.490Z,22.60
2022-08-20T04:48:39.404Z,22.40
2022-08-20T04:51:07.128Z,22.50
2022-08-20T04:53:33.810Z,22.40
2022-08-20T04:56:00.839Z,22.30
2022-08-20T04:58:28.585Z,22.20
2022-08-20T05:00:55.731Z,22.20
2022-08-20T05:03:25.981Z,22.20
2022-08-20T05:05:50.532Z,22.30
2022-08-20T05:08:19.657Z,22.30
2022-08-20T05:10:48.008Z,22.30
2022-08-20T05:13:13.345Z,22.30
2022-08-20T05:15:39.358Z,22.30
2022-08-20T05:18:06.109Z,22.30
2022-08-20T05:20:33.933Z,22.30
2022-08-20T05:22:59.943Z,22.40
2022-08-20T05:25:29.943Z,22.30
2022-08-20T05:28:01.664Z,22.30
2022-08-20T05:30:26.381Z,22.30
2022-08-20T05:32:51.424Z,22.40
2022-08-20T05:35:15.981Z,22.40
2022-08-20T05:37:44.942Z,22.30
2022-08-20T05:40:16.395Z,22.30
2022-08-20T05:42:43.421Z,22.30
2022-08-20T05:45:11.209Z,22.30
2022-08-20T05:47:35.545Z,22.30
2022-08-20T05:50:09.965Z,22.30
2022-08-20T05:52:44.457Z,22.30
2022-08-20T05:55:11.334Z,22.20
2022-08-20T05:57:35.414Z,22.20
2022-08-20T06:00:02.768Z,22.10
2022-08-20T06:02:52.176Z,22.20
2022-08-20T06:05:15.970Z,22.00
2022-08-20T06:07:42.880Z,22.10
2022-08-20T06:10:09.036Z,22.10
2022-08-20T06:12:32.821Z,22.10
2022-08-20T06:14:56.515Z,22.10
2022-08-20T06:17:22.686Z,22.00
2022-08-20T06:19:48.434Z,22.10
2022-08-20T06:22:19.565Z,21.90
2022-08-20T06:24:47.065Z,21.90
2022-08-20T06:27:14.835Z,21.90
2022-08-20T06:29:38.548Z,21.70
2022-08-20T06:32:02.278Z,21.60
2022-08-20T06:34:37.482Z,21.60
2022-08-20T06:37:18.061Z,21.60
2022-08-20T06:39:41.814Z,21.70
2022-08-20T06:42:05.864Z,21.60
2022-08-20T06:44:29.602Z,21.70
2022-08-20T06:46:55.708Z,21.70
2022-08-20T06:49:19.402Z,21.70
2022-08-20T06:51:45.165Z,21.70
2022-08-20T06:54:13.752Z,21.70
2022-08-20T06:56:37.630Z,21.70
2022-08-20T06:59:01.712Z,21.60
2022-08-20T07:01:25.385Z,21.70
2022-08-20T07:03:55.125Z,21.80
2022-08-20T07:06:20.367Z,21.90
2022-08-20T07:08:45.849Z,21.90
2022-08-20T07:11:10.160Z,21.90
2022-08-20T07:13:33.770Z,22.00
2022-08-20T07:15:57.734Z,21.90
2022-08-20T07:18:28.803Z,21.80
2022-08-20T07:20:55.031Z,21.80
2022-08-20T07:23:18.767Z,21.90
2022-08-20T07:25:45.974Z,21.90
2022-08-20T07:28:14.819Z,21.90
2022-08-20T07:30:57.787Z,22.10
2022-08-20T07:33:21.776Z,22.00
2022-08-20T07:35:49.086Z,22.00
2022-08-20T07:38:19.472Z,22.10
2022-08-20T07:40:44.750Z,22.00
2022-08-20T07:43:09.893Z,22.10
2022-08-20T07:45:38.166Z,22.00
2022-08-20T07:48:09.209Z,21.90
2022-08-20T07:50:33.260Z,22.00
2022-08-20T07:53:00.597Z,21.70
2022-08-20T07:55:25.009Z,21.70
2022-08-20T07:57:52.102Z,21.80
2022-08-20T08:00:18.906Z,21.80
2022-08-20T08:02:42.499Z,21.70
2022-08-20T08:05:08.209Z,21.80
2022-08-20T08:07:32.634Z,21.60
2022-08-20T08:09:58.900Z,21.50
2022-08-20T08:12:23.441Z,21.50
2022-08-20T08:14:52.436Z,21.50
2022-08-20T08:17:17.903Z,21.70
2022-08-20T08:19:48.642Z,21.60
2022-08-20T08:22:16.264Z,21.60
2022-08-20T08:24:56.906Z,21.70
2022-08-20T08:27:22.296Z,21.90
2022-08-20T08:29:46.054Z,22.10
2022-08-20T08:32:10.991Z,21.90
2022-08-20T08:34:37.634Z,22.00
2022-08-20T08:37:02.888Z,22.30
2022-08-20T08:39:30.308Z,22.30
2022-08-20T08:42:05.194Z,22.20
2022-08-20T08:44:38.470Z,22.20
2022-08-20T08:47:18.383Z,22.20
2022-08-20T08:49:43.406Z,22.40
2022-08-20T08:52:14.795Z,22.50
2022-08-20T08:54:44.376Z,22.70
2022-08-20T08:57:10.591Z,23.00
2022-08-20T08:59:52.459Z,23.10
2022-08-20T09:02:23.419Z,23.10
2022-08-20T09:04:51.478Z,22.80
2022-08-20T09:07:18.551Z,23.10
2022-08-20T09:09:46.415Z,23.20
2022-08-20T09:12:13.069Z,23.10
2022-08-20T09:14:37.265Z,23.20
2022-08-20T09:17:00.897Z,23.30
2022-08-20T09:19:24.502Z,23.30
2022-08-20T09:21:49.831Z,23.40
2022-08-20T09:24:16.799Z,23.30
2022-08-20T09:26:40.384Z,23.20
2022-08-20T09:29:03.940Z,23.20
2022-08-20T09:31:27.837Z,23.20
2022-08-20T09:33:51.478Z,23.00
2022-08-20T09:36:31.373Z,22.90
2022-08-20T09:38:58.369Z,23.00
2022-08-20T09:41:21.977Z,23.20
2022-08-20T09:43:45.529Z,23.20
2022-08-20T09:46:09.140Z,23.30
2022-08-20T09:48:32.706Z,23.20
2022-08-20T09:50:56.252Z,23.10
2022-08-20T09:53:21.493Z,23.40
2022-08-20T09:55:50.258Z,23.40
2022-08-20T09:58:25.134Z,23.10
2022-08-20T10:00:48.878Z,22.80
2022-08-20T10:03:12.454Z,22.80
2022-08-20T10:05:36.027Z,22.70
2022-08-20T10:07:59.935Z,22.90
2022-08-20T10:10:23.473Z,22.60
2022-08-20T10:12:51.644Z,22.70
2022-08-20T10:15:18.620Z,22.70
2022-08-20T10:17:45.798Z,22.90
2022-08-20T10:20:13.555Z,23.10
2022-08-20T10:22:37.722Z,22.90
2022-08-20T10:25:01.350Z,22.70
2022-08-20T10:27:25.558Z,23.10
2022-08-20T10:29:50.474Z,23.20
2022-08-20T10:32:17.376Z,23.00
2022-08-20T10:34:41.516Z,23.10
2022-08-20T10:37:05.166Z,23.40
2022-08-20T10:39:28.753Z,23.40
2022-08-20T10:41:55.242Z,23.40
2022-08-20T10:44:18.986Z,23.10
2022-08-20T10:46:45.738Z,23.20
2022-08-20T10:49:09.266Z,23.20
2022-08-20T10:51:33.142Z,23.50
2022-08-20T10:53:56.704Z,23.90
2022-08-20T10:56:21.115Z,24.20
2022-08-20T10:58:44.826Z,24.00
2022-08-20T11:01:09.410Z,24.00
2022-08-20T11:03:34.837Z,24.20
2022-08-20T11:05:58.590Z,24.30
2022-08-20T11:08:33.643Z,24.40
2022-08-20T11:10:58.442Z,24.50
2022-08-20T11:13:22.944Z,24.30
2022-08-20T11:15:47.205Z,24.40
2022-08-20T11:18:11.297Z,24.20
2022-08-20T11:20:36.981Z,24.00
2022-08-20T11:23:01.090Z,23.90
2022-08-20T11:25:25.085Z,24.10
2022-08-20T11:27:51.406Z,24.30
2022-08-20T11:30:19.438Z,24.40
2022-08-20T11:32:43.198Z,24.50
2022-08-20T11:35:38.287Z,24.50
2022-08-20T11:37:53.264Z,24.40
2022-08-20T11:40:16.911Z,24.50
2022-08-20T11:42:58.624Z,24.40
2022-08-20T11:45:25.509Z,24.40
2022-08-20T11:47:49.361Z,24.40
2022-08-20T11:50:17.061Z,24.30
2022-08-20T11:52:43.550Z,24.50
2022-08-20T11:55:11.502Z,24.40
2022-08-20T11:57:38.170Z,24.80
2022-08-20T12:00:05.388Z,25.00
2022-08-20T12:02:32.732Z,24.90
2022-08-20T12:04:56.341Z,24.90
2022-08-20T12:07:23.230Z,24.60
2022-08-20T12:09:50.754Z,24.60
2022-08-20T12:12:17.258Z,24.50
2022-08-20T12:14:41.095Z,24.70
2022-08-20T12:17:10.314Z,24.80
2022-08-20T12:19:33.874Z,24.90
2022-08-20T12:21:57.445Z,25.00
2022-08-20T12:24:21.058Z,25.20
2022-08-20T12:26:44.609Z,25.20
2022-08-20T12:29:09.545Z,24.90
2022-08-20T12:31:33.078Z,25.20
2022-08-20T12:33:56.743Z,25.50
2022-08-20T12:36:20.282Z,25.40
2022-08-20T12:38:43.967Z,24.90
2022-08-20T12:41:07.812Z,25.20
2022-08-20T12:43:31.759Z,25.30
2022-08-20T12:45:56.751Z,25.00
2022-08-20T12:48:21.007Z,25.00
2022-08-20T12:50:46.468Z,25.20
2022-08-20T12:53:10.419Z,25.20
2022-08-20T12:55:37.625Z,25.40
2022-08-20T12:58:03.445Z,25.50
2022-08-20T13:00:31.031Z,25.60
2022-08-20T13:02:59.459Z,25.80
2022-08-20T13:05:24.007Z,26.20
2022-08-20T13:07:50.056Z,26.00
2022-08-20T13:10:17.452Z,25.90
2022-08-20T13:12:41.181Z,26.00
2022-08-20T13:15:05.335Z,25.70
2022-08-20T13:17:38.440Z,25.50
2022-08-20T13:20:05.562Z,25.30
2022-08-20T13:22:29.307Z,25.50
2022-08-20T13:24:53.548Z,25.60
2022-08-20T13:27:22.656Z,25.80
2022-08-20T13:29:49.040Z,26.00
2022-08-20T13:32:12.590Z,25.90
2022-08-20T13:34:36.054Z,26.00
2022-08-20T13:37:01.157Z,26.10
2022-08-20T13:39:25.207Z,26.00
2022-08-20T13:41:48.765Z,26.00
2022-08-20T13:44:12.239Z,25.70
2022-08-20T13:46:35.896Z,25.50
2022-08-20T13:48:59.615Z,25.50
2022-08-20T13:51:23.287Z,25.40
2022-08-20T13:53:52.684Z,25.20
2022-08-20T13:56:16.206Z,25.40
2022-08-20T13:58:39.799Z,25.30
2022-08-20T14:01:03.433Z,25.40
2022-08-20T14:03:27.067Z,25.70
2022-08-20T14:05:50.817Z,25.70
2022-08-20T14:08:17.856Z,25.90
2022-08-20T14:10:44.676Z,25.90
2022-08-20T14:13:15.132Z,26.10
2022-08-20T14:15:39.782Z,26.20
2022-08-20T14:18:03.889Z,26.20
2022-08-20T14:20:32.377Z,26.20
2022-08-20T14:22:56.182Z,26.20
2022-08-20T14:25:22.918Z,26.30
2022-08-20T14:27:47.997Z,26.00
2022-08-20T14:30:19.138Z,25.90
2022-08-20T14:32:43.056Z,26.00
2022-08-20T14:35:08.147Z,26.30
2022-08-20T14:37:34.394Z,26.40
2022-08-20T14:40:00.494Z,26.40
2022-08-20T14:42:26.463Z,26.40
2022-08-20T14:44:52.153Z,26.30
2022-08-20T14:47:18.820Z,26.30
2022-08-20T14:49:42.936Z,26.40
2022-08-20T14:52:06.949Z,26.60
2022-08-20T14:54:30.606Z,26.40
2022-08-20T14:56:55.004Z,26.60
2022-08-20T14:59:18.598Z,26.50
2022-08-20T15:01:43.704Z,26.60
2022-08-20T15:04:07.267Z,26.50
2022-08-20T15:06:31.549Z,26.60
2022-08-20T15:08:55.139Z,26.70
2022-08-20T15:11:18.890Z,26.70
2022-08-20T15:13:42.511Z,26.70
2022-08-20T15:16:06.248Z,26.60
2022-08-20T15:18:32.011Z,26.40
2022-08-20T15:20:55.623Z,26.40
2022-08-20T15:23:19.345Z,26.40
2022-08-20T15:25:42.925Z,26.30
2022-08-20T15:28:09.391Z,25.90
2022-08-20T15:30:33.476Z,25.80
2022-08-20T15:32:57.542Z,25.70
2022-08-20T15:35:24.034Z,25.70
2022-08-20T15:37:50.721Z,25.70
2022-08-20T15:40:18.293Z,25.70
2022-08-20T15:42:41.980Z,26.00
2022-08-20T15:45:07.724Z,26.20
2022-08-20T15:47:37.483Z,26.10
2022-08-20T15:50:07.968Z,26.10
2022-08-20T15:52:42.463Z,26.10
2022-08-20T15:55:08.294Z,26.20
2022-08-20T15:57:47.214Z,26.20
2022-08-20T16:00:19.698Z,26.20
2022-08-20T16:03:18.912Z,25.70
2022-08-20T16:05:52.115Z,25.70
2022-08-20T16:08:54.280Z,26.00
2022-08-20T16:11:28.780Z,26.00
2022-08-20T16:13:57.472Z,25.80
2022-08-20T16:16:33.318Z,25.70
2022-08-20T16:18:57.365Z,25.40
2022-08-20T16:21:29.448Z,25.50
2022-08-20T16:23:55.452Z,25.40
2022-08-20T16:27:04.498Z,25.30
2022-08-20T16:29:46.694Z,25.40
2022-08-20T16:32:14.948Z,25.30
2022-08-20T16:34:44.266Z,25.50
2022-08-20T16:37:19.786Z,25.30
2022-08-20T16:39:56.860Z,25.30
2022-08-20T16:42:25.264Z,25.20
2022-08-20T16:44:52.240Z,25.40
2022-08-20T16:47:20.806Z,25.20
2022-08-20T16:49:51.489Z,25.20
2022-08-20T16:52:15.240Z,25.50
2022-08-20T16:54:38.837Z,25.50
2022-08-20T16:57:07.339Z,25.10
2022-08-20T16:59:32.127Z,25.20
2022-08-20T17:02:07.296Z,25.40
2022-08-20T17:04:34.914Z,25.60
2022-08-20T17:07:02.986Z,25.60
2022-08-20T17:09:41.295Z,25.40
2022-08-20T17:12:19.729Z,25.30
2022-08-20T17:14:50.215Z,25.40
2022-08-20T17:17:23.121Z,25.20
2022-08-20T17:19:55.344Z,25.30
2022-08-20T17:22:21.708Z,25.20
2022-08-20T17:24:45.182Z,25.10
2022-08-20T17:27:14.993Z,25.10
2022-08-20T17:29:54.216Z,25.20
2022-08-20T17:32:23.368Z,25.10
2022-08-20T17:34:51.083Z,25.10
2022-08-20T17:37:22.813Z,25.00
2022-08-20T17:39:48.855Z,25.00
2022-08-20T17:42:21.213Z,25.10
2022-08-20T17:44:52.482Z,25.00
2022-08-20T17:47:21.016Z,25.00
2022-08-20T17:50:02.187Z,24.90
2022-08-20T17:52:31.928Z,24.90
2022-08-20T17:54:55.882Z,24.90
2022-08-20T17:57:25.045Z,24.80
2022-08-20T18:00:01.272Z,24.80
2022-08-20T18:02:30.396Z,24.80
2022-08-20T18:04:57.442Z,24.70
2022-08-20T18:07:27.961Z,24.60
2022-08-20T18:10:02.894Z,24.60
2022-08-20T18:12:34.946Z,24.60
2022-08-20T18:15:08.655Z,24.70
2022-08-20T18:18:19.625Z,24.70
2022-08-20T18:21:41.483Z,24.60
2022-08-20T18:24:12.141Z,24.70
2022-08-20T18:26:46.141Z,24.60
2022-08-20T18:29:15.116Z,24.60
2022-08-20T18:31:48.706Z,24.60
2022-08-20T18:34:15.986Z,24.60
2022-08-20T18:36:39.849Z,24.60
2022-08-20T18:39:07.556Z,24.70
2022-08-20T18:41:34.733Z,24.60
2022-08-20T18:44:09.055Z,24.50
2022-08-20T18:46:33.381Z,24.50
2022-08-20T18:49:01.605Z,24.30
2022-08-20T18:51:36.868Z,24.20
2022-08-20T18:54:00.727Z,24.20
2022-08-20T18:56:38.541Z,24.20
2022-08-20T18:59:12.910Z,24.10
2022-08-20T19:01:41.397Z,24.00
2022-08-20T19:04:23.077Z,24.00
2022-08-20T19:06:57.619Z,23.80
2022-08-20T19:09:53.063Z,23.80
2022-08-20T19:12:37.222Z,23.80
2022-08-20T19:15:08.336Z,23.80
2022-08-20T19:17:56.623Z,23.70
2022-08-20T19:20:27.355Z,23.80
2022-08-20T19:22:54.310Z,23.70
2022-08-20T19:25:31.947Z,23.70
2022-08-20T19:27:57.742Z,23.70
2022-08-20T19:30:39.260Z,23.60
2022-08-20T19:33:05.051Z,23.70
2022-08-20T19:35:30.683Z,23.60
2022-08-20T19:37:59.602Z,23.40
2022-08-20T19:40:28.781Z,23.40
2022-08-20T19:42:53.067Z,23.40
2022-08-20T19:45:28.299Z,23.30
2022-08-20T19:48:05.992Z,23.30
2022-08-20T19:50:40.608Z,23.30
2022-08-20T19:53:26.430Z,23.20
2022-08-20T19:56:01.457Z,23.10
2022-08-20T19:58:27.341Z,23.00
2022-08-20T20:00:52.999Z,23.10
2022-08-20T20:03:22.908Z,23.00
2022-08-20T20:05:55.539Z,22.90
2022-08-20T20:08:20.171Z,22.90
2022-08-20T20:10:47.026Z,22.80
2022-08-20T20:13:16.456Z,22.80
2022-08-20T20:15:41.882Z,22.80
2022-08-20T20:18:06.301Z,22.70
2022-08-20T20:20:34.970Z,22.80
2022-08-20T20:23:06.844Z,22.90
2022-08-20T20:25:44.359Z,22.70
2022-08-20T20:28:22.777Z,22.70
2022-08-20T20:30:47.086Z,22.50
2022-08-20T20:33:18.979Z,22.60
2022-08-20T20:35:42.982Z,22.50
2022-08-20T20:38:11.479Z,22.60
2022-08-20T20:40:45.600Z,22.60
2022-08-20T20:43:12.739Z,22.40
2022-08-20T20:45:41.015Z,22.40
2022-08-20T20:48:18.730Z,22.30
2022-08-20T20:50:42.520Z,22.20
2022-08-20T20:53:07.466Z,22.30
2022-08-20T20:55:33.903Z,22.40
2022-08-20T20:57:58.573Z,22.10
2022-08-20T21:00:26.915Z,22.00
2022-08-20T21:02:50.729Z,22.10
2022-08-20T21:05:17.313Z,22.20
2022-08-20T21:07:50.919Z,22.20
2022-08-20T21:10:16.743Z,22.30
2022-08-20T21:12:40.391Z,22.20
2022-08-20T21:15:04.263Z,22.20
2022-08-20T21:17:28.019Z,22.00
2022-08-20T21:19:52.702Z,21.90
2022-08-20T21:22:16.578Z,21.80
2022-08-20T21:24:40.055Z,21.80
2022-08-20T21:27:05.344Z,21.70
2022-08-20T21:29:33.053Z,21.70
2022-08-20T21:31:57.125Z,21.70
2022-08-20T21:34:21.868Z,21.60
2022-08-20T21:36:48.859Z,21.60
2022-08-20T21:39:15.367Z,21.40
2022-08-20T21:41:43.212Z,21.40
2022-08-20T21:44:22.719Z,21.40
2022-08-20T21:46:50.743Z,21.40
2022-08-20T21:49:15.645Z,21.30
2022-08-20T21:51:39.792Z,21.30
2022-08-20T21:54:03.753Z,21.20
2022-08-20T21:56:29.492Z,21.20
2022-08-20T21:58:56.794Z,21.10
2022-08-20T22:01:22.771Z,21.10
2022-08-20T22:03:49.577Z,21.10
2022-08-20T22:06:16.465Z,21.00
2022-08-20T22:08:42.481Z,21.00
2022-08-20T22:11:10.385Z,20.90
2022-08-20T22:13:37.483Z,20.90
2022-08-20T22:16:02.495Z,21.00
2022-08-20T22:18:28.437Z,21.00
2022-08-20T22:20:52.528Z,20.90
2022-08-20T22:23:18.092Z,20.80
2022-08-20T22:25:43.996Z,20.70
2022-08-20T22:28:09.054Z,20.80
2022-08-20T22:30:34.274Z,20.80
2022-08-20T22:33:03.215Z,20.50
2022-08-20T22:35:29.177Z,20.50
2022-08-20T22:37:53.993Z,20.40
2022-08-20T22:40:18.609Z,20.40
2022-08-20T22:42:43.022Z,20.50
2022-08-20T22:45:13.446Z,20.60
2022-08-20T22:47:39.727Z,20.40
2022-08-20T22:50:05.947Z,20.40
2022-08-20T22:52:42.414Z,20.40
2022-08-20T22:55:09.518Z,20.30
2022-08-20T22:57:34.351Z,20.30
2022-08-20T22:59:59.506Z,20.40
2022-08-20T23:02:25.327Z,20.20
2022-08-20T23:04:49.373Z,20.40
2022-08-20T23:07:16.503Z,20.60
2022-08-20T23:09:43.130Z,20.70
2022-08-20T23:12:07.570Z,20.50
2022-08-20T23:14:31.500Z,20.50
2022-08-20T23:17:02.759Z,20.50
2022-08-20T23:19:26.892Z,20.70
2022-08-20T23:21:51.787Z,20.60
2022-08-20T23:24:16.058Z,20.70
2022-08-20T23:26:52.381Z,20.70
2022-08-20T23:29:22.225Z,20.50
2022-08-20T23:31:46.490Z,20.50
2022-08-20T23:34:11.673Z,20.60
2022-08-20T23:36:38.409Z,20.50
2022-08-20T23:39:02.268Z,20.60
2022-08-20T23:41:31.244Z,20.60
2022-08-20T23:44:03.635Z,20.70
2022-08-20T23:46:31.923Z,20.50
2022-08-20T23:48:56.280Z,20.70
2022-08-20T23:51:20.751Z,20.80
2022-08-20T23:53:44.891Z,20.60
2022-08-20T23:56:09.429Z,20.50
2022-08-20T23:58:33.641Z,20.40
